Time;durP1;ratioP1;P1;durP2;ratioP2;P2;SDS_P1;SDS_P2;PMS_P1;PMS_P2;Temp;Humidity;BMP_temperature;BMP_pressure;BME280_temperature;BME280_humidity;BME280_pressure;Samples;Min_cycle;Max_cycle;Signal;HPM_P1;HPM_P2
2022/01/10 00:00:42;;;;;;;;;;;3.10;99.90;;;;;;5142160;27;19923;-55
2022/01/10 00:03:08;;;;;;;;;;;2.40;99.90;;;;;;5157104;27;19923;-55
2022/01/10 00:05:34;;;;;;;;;;;2.40;99.90;;;;;;5149791;27;19946;-56
2022/01/10 00:08:02;;;;;;;;;;;2.40;99.90;;;;;;5142187;27;19927;-56
2022/01/10 00:10:28;;;;;;;;;;;2.40;99.90;;;;;;5154193;27;19930;-56
2022/01/10 00:12:53;;;;;;;;;;;2.30;99.90;;;;;;5142030;27;20357;-56
2022/01/10 00:15:19;;;;;;;;;;;2.30;99.90;;;;;;5153122;27;19948;-57
2022/01/10 00:17:45;;;;;;;;;;;2.30;99.90;;;;;;5146154;27;19923;-56
2022/01/10 00:20:12;;;;;;;;;;;2.30;99.90;;;;;;5144763;27;19968;-57
2022/01/10 00:22:39;;;;;;;;;;;2.20;99.90;;;;;;5155432;27;19927;-55
2022/01/10 00:25:05;;;;;;;;;;;2.10;99.90;;;;;;5136811;27;19923;-56
2022/01/10 00:27:31;;;;;;;;;;;2.10;99.90;;;;;;5145864;27;20404;-58
2022/01/10 00:29:57;;;;;;;;;;;2.10;99.90;;;;;;5147834;27;19974;-56
2022/01/10 00:32:25;;;;;;;;;;;2.00;99.90;;;;;;5138054;27;19976;-57
2022/01/10 00:34:51;;;;;;;;;;;1.90;99.90;;;;;;5153507;27;19927;-56
2022/01/10 00:37:17;;;;;;;;;;;1.80;99.90;;;;;;5143423;27;19930;-59
2022/01/10 00:39:44;;;;;;;;;;;1.90;99.90;;;;;;5152684;27;19974;-58
2022/01/10 00:42:09;;;;;;;;;;;2.70;99.90;;;;;;5144144;27;20402;-56
2022/01/10 00:44:39;;;;;;;;;;;1.80;99.90;;;;;;5138370;27;19931;-56
2022/01/10 00:47:05;;;;;;;;;;;1.80;99.90;;;;;;5143385;27;19927;-55
2022/01/10 00:49:31;;;;;;;;;;;1.70;99.90;;;;;;5142493;27;19945;-59
2022/01/10 00:51:56;;;;;;;;;;;1.70;99.90;;;;;;5144275;27;19980;-57
2022/01/10 00:54:22;;;;;;;;;;;2.40;99.90;;;;;;5149618;27;19973;-59
2022/01/10 00:56:48;;;;;;;;;;;1.60;99.90;;;;;;5137872;27;19923;-58
2022/01/10 00:59:13;;;;;;;;;;;1.50;99.90;;;;;;5149757;27;19934;-59
2022/01/10 01:01:40;;;;;;;;;;;1.50;99.90;;;;;;5143585;27;19923;-58
2022/01/10 01:04:06;;;;;;;;;;;1.40;99.90;;;;;;5153219;27;20004;-61
2022/01/10 01:06:31;;;;;;;;;;;1.40;99.90;;;;;;5137359;27;19932;-56
2022/01/10 01:09:01;;;;;;;;;;;1.40;99.90;;;;;;5151403;27;19950;-56
2022/01/10 01:14:22;;;;;;;;;;;1.20;99.90;;;;;;5142093;27;19975;-56
2022/01/10 01:16:57;;;;;;;;;;;1.30;99.90;;;;;;5149646;27;19923;-56
2022/01/10 01:24:33;;;;;;;;;;;1.30;99.90;;;;;;5141631;27;19927;-57
2022/01/10 01:26:59;;;;;;;;;;;1.20;99.90;;;;;;5151567;27;20365;-56
2022/01/10 01:29:26;;;;;;;;;;;1.20;99.90;;;;;;5140701;27;19927;-56
2022/01/10 01:31:52;;;;;;;;;;;1.10;99.90;;;;;;5144298;27;19931;-56
2022/01/10 01:34:19;;;;;;;;;;;1.10;99.90;;;;;;5129513;27;19927;-56
2022/01/10 01:36:48;;;;;;;;;;;1.20;99.90;;;;;;5137281;27;19976;-56
2022/01/10 01:39:22;;;;;;;;;;;1.00;99.90;;;;;;5149533;27;19966;-56
2022/01/10 01:41:54;;;;;;;;;;;1.10;99.90;;;;;;5143525;27;19931;-56
2022/01/10 01:44:20;;;;;;;;;;;1.00;99.90;;;;;;5139344;27;19974;-56
2022/01/10 01:46:46;;;;;;;;;;;1.10;99.90;;;;;;5150243;27;19934;-56
2022/01/10 01:49:12;;;;;;;;;;;1.10;99.90;;;;;;5138216;27;19923;-58
2022/01/10 01:51:37;;;;;;;;;;;1.30;99.90;;;;;;5144174;27;19932;-57
2022/01/10 01:54:04;;;;;;;;;;;1.30;99.90;;;;;;5145915;27;19930;-58
2022/01/10 01:56:29;;;;;;;;;;;0.90;99.90;;;;;;5136991;27;19938;-56
2022/01/10 01:58:55;;;;;;;;;;;0.90;99.90;;;;;;5149581;27;19919;-61
2022/01/10 02:01:22;;;;;;;;;;;0.80;99.90;;;;;;5121162;27;19934;-58
2022/01/10 02:03:48;;;;;;;;;;;0.70;99.90;;;;;;5151884;27;20380;-56
2022/01/10 02:06:14;;;;;;;;;;;0.70;99.90;;;;;;5140358;27;19924;-59
2022/01/10 02:08:40;;;;;;;;;;;0.60;99.90;;;;;;5149129;27;19937;-56
2022/01/10 02:11:08;;;;;;;;;;;0.70;99.90;;;;;;5136725;27;19923;-58
2022/01/10 02:13:34;;;;;;;;;;;0.70;99.90;;;;;;5143966;27;19966;-56
2022/01/10 02:16:02;;;;;;;;;;;0.70;99.90;;;;;;5144504;27;20001;-55
2022/01/10 02:18:28;;;;;;;;;;;0.70;99.90;;;;;;5138112;27;19950;-58
2022/01/10 02:20:54;;;;;;;;;;;1.70;99.90;;;;;;5149001;27;19989;-58
2022/01/10 02:23:20;;;;;;;;;;;0.90;99.90;;;;;;5139056;27;19923;-56
2022/01/10 02:25:46;;;;;;;;;;;0.70;99.90;;;;;;5145518;27;19923;-57
2022/01/10 02:28:12;;;;;;;;;;;0.60;99.90;;;;;;5139051;27;19923;-56
2022/01/10 02:30:38;;;;;;;;;;;0.60;99.90;;;;;;5149982;27;19976;-58
2022/01/10 02:33:04;;;;;;;;;;;0.50;99.90;;;;;;5149744;27;20334;-56
2022/01/10 02:35:37;;;;;;;;;;;0.60;99.90;;;;;;5140002;27;19934;-59
2022/01/10 02:38:03;;;;;;;;;;;0.60;99.90;;;;;;5141217;27;19930;-57
2022/01/10 02:40:31;;;;;;;;;;;1.40;99.90;;;;;;5138986;27;19928;-61
2022/01/10 02:42:57;;;;;;;;;;;0.50;99.90;;;;;;5148815;27;19930;-60
2022/01/10 02:45:23;;;;;;;;;;;0.40;99.90;;;;;;5138597;27;19946;-60
2022/01/10 02:47:49;;;;;;;;;;;0.30;99.90;;;;;;5143009;27;20369;-61
2022/01/10 02:50:15;;;;;;;;;;;0.40;99.90;;;;;;5132825;27;19928;-56
2022/01/10 02:52:41;;;;;;;;;;;0.40;99.90;;;;;;5149630;27;19927;-58
2022/01/10 02:55:07;;;;;;;;;;;-1.40;99.90;;;;;;5136610;27;20330;-63
2022/01/10 02:57:33;;;;;;;;;;;0.20;99.90;;;;;;5145216;27;20284;-58
2022/01/10 03:00:00;;;;;;;;;;;0.80;99.90;;;;;;5142608;27;19927;-63
2022/01/10 03:02:31;;;;;;;;;;;0.10;99.90;;;;;;5138068;27;19927;-63
2022/01/10 03:04:56;;;;;;;;;;;0.10;99.90;;;;;;5114628;27;20511;-58
2022/01/10 03:07:23;;;;;;;;;;;0.00;99.90;;;;;;5135318;27;19923;-60
2022/01/10 03:09:49;;;;;;;;;;;0.00;99.90;;;;;;5136890;27;19979;-58
2022/01/10 03:12:15;;;;;;;;;;;0.00;99.90;;;;;;5146147;27;19923;-61
2022/01/10 03:14:41;;;;;;;;;;;0.00;99.90;;;;;;5135260;27;19928;-63
2022/01/10 03:17:08;;;;;;;;;;;0.10;99.90;;;;;;5144120;27;19930;-65
2022/01/10 03:19:35;;;;;;;;;;;0.10;99.90;;;;;;5144455;27;20408;-61
2022/01/10 03:22:02;;;;;;;;;;;0.20;99.90;;;;;;5138503;27;19927;-59
2022/01/10 03:24:27;;;;;;;;;;;0.10;99.90;;;;;;5141100;27;20399;-58
2022/01/10 03:26:53;;;;;;;;;;;0.10;99.90;;;;;;5130295;27;19923;-59
2022/01/10 03:29:19;;;;;;;;;;;0.10;99.90;;;;;;5137249;27;20003;-56
2022/01/10 03:31:45;;;;;;;;;;;0.20;99.90;;;;;;5143020;27;19935;-55
2022/01/10 03:34:13;;;;;;;;;;;0.10;99.90;;;;;;5144669;27;20376;-56
2022/01/10 03:36:39;;;;;;;;;;;0.10;99.90;;;;;;5134535;27;19935;-57
2022/01/10 03:39:04;;;;;;;;;;;0.40;99.90;;;;;;5148668;27;19924;-58
2022/01/10 03:41:30;;;;;;;;;;;0.10;99.90;;;;;;5141464;27;19923;-65
2022/01/10 03:43:55;;;;;;;;;;;0.10;99.90;;;;;;5131592;27;19954;-59
2022/01/10 03:46:21;;;;;;;;;;;0.10;99.90;;;;;;5146103;27;20268;-59
2022/01/10 03:48:47;;;;;;;;;;;0.00;99.90;;;;;;5135106;27;20019;-56
2022/01/10 03:51:12;;;;;;;;;;;0.10;99.90;;;;;;5141398;27;20299;-56
2022/01/10 03:53:38;;;;;;;;;;;0.10;99.90;;;;;;5143953;27;20417;-57
2022/01/10 03:56:04;;;;;;;;;;;0.10;99.90;;;;;;5143479;27;20277;-67
2022/01/10 03:58:29;;;;;;;;;;;0.10;99.90;;;;;;5136117;27;19923;-64
2022/01/10 04:00:55;;;;;;;;;;;0.00;99.90;;;;;;5148869;27;19968;-58
2022/01/10 04:03:21;;;;;;;;;;;0.10;99.90;;;;;;5133806;27;20419;-59
2022/01/10 04:05:46;;;;;;;;;;;0.00;99.90;;;;;;5141263;27;19923;-57
2022/01/10 04:08:12;;;;;;;;;;;0.00;99.90;;;;;;5148873;27;19968;-56
2022/01/10 04:10:38;;;;;;;;;;;0.00;99.90;;;;;;5135169;27;19934;-57
2022/01/10 04:13:04;;;;;;;;;;;0.10;99.90;;;;;;5135133;27;19927;-67
2022/01/10 04:15:29;;;;;;;;;;;0.70;99.90;;;;;;5144735;27;19931;-67
2022/01/10 04:17:57;;;;;;;;;;;0.00;99.90;;;;;;5142101;27;19919;-63
2022/01/10 04:20:25;;;;;;;;;;;0.00;99.90;;;;;;5150214;27;19985;-60
2022/01/10 04:22:51;;;;;;;;;;;0.00;99.90;;;;;;5137300;27;19935;-58
2022/01/10 04:25:17;;;;;;;;;;;0.00;99.90;;;;;;5146715;27;19923;-61
2022/01/10 04:27:43;;;;;;;;;;;0.90;99.90;;;;;;5145035;27;20342;-56
2022/01/10 04:30:08;;;;;;;;;;;0.00;99.90;;;;;;5147724;27;19923;-60
2022/01/10 04:32:34;;;;;;;;;;;0.00;99.90;;;;;;5139387;27;19924;-57
2022/01/10 04:34:59;;;;;;;;;;;0.00;99.90;;;;;;5149782;27;19928;-59
2022/01/10 04:37:25;;;;;;;;;;;0.00;99.90;;;;;;5142098;27;19971;-58
2022/01/10 04:39:51;;;;;;;;;;;-0.10;99.90;;;;;;5148720;27;20018;-60
2022/01/10 04:42:17;;;;;;;;;;;-0.20;99.90;;;;;;5141388;27;20040;-58
2022/01/10 04:44:42;;;;;;;;;;;-0.20;99.90;;;;;;5134670;27;19974;-61
2022/01/10 04:47:09;;;;;;;;;;;-0.10;99.90;;;;;;5151624;27;19923;-56
2022/01/10 04:49:58;;;;;;;;;;;-0.10;99.90;;;;;;5136620;27;19923;-59
2022/01/10 04:52:20;;;;;;;;;;;-0.10;99.90;;;;;;5149196;27;20424;-59
2022/01/10 04:54:46;;;;;;;;;;;-0.20;99.90;;;;;;5138018;27;19924;-61
2022/01/10 04:57:11;;;;;;;;;;;-0.20;99.90;;;;;;5151204;27;19930;-63
2022/01/10 04:59:37;;;;;;;;;;;-0.20;99.90;;;;;;5142836;27;19927;-58
2022/01/10 05:02:02;;;;;;;;;;;-0.30;99.90;;;;;;5143460;27;20297;-56
2022/01/10 05:04:28;;;;;;;;;;;-0.20;99.90;;;;;;5136566;27;20353;-63
2022/01/10 05:06:54;;;;;;;;;;;-0.20;99.90;;;;;;5150056;27;20361;-61
2022/01/10 05:09:19;;;;;;;;;;;-0.20;99.90;;;;;;5149430;27;19923;-59
2022/01/10 05:11:45;;;;;;;;;;;0.20;99.90;;;;;;5143685;27;19931;-65
2022/01/10 05:14:12;;;;;;;;;;;-0.30;99.90;;;;;;5141023;27;19924;-66
2022/01/10 05:16:39;;;;;;;;;;;-0.30;99.90;;;;;;5151049;27;20376;-66
2022/01/10 05:19:05;;;;;;;;;;;-0.30;99.90;;;;;;5138248;27;20136;-62
2022/01/10 05:21:30;;;;;;;;;;;-0.30;99.90;;;;;;5147710;27;19936;-61
2022/01/10 05:23:56;;;;;;;;;;;-0.30;99.90;;;;;;5143151;27;19941;-66
2022/01/10 05:26:21;;;;;;;;;;;-0.30;99.90;;;;;;5148750;27;19977;-64
2022/01/10 05:28:47;;;;;;;;;;;-0.30;99.90;;;;;;5137594;27;19927;-60
2022/01/10 05:31:13;;;;;;;;;;;-0.30;99.90;;;;;;5149871;27;19949;-67
2022/01/10 05:33:38;;;;;;;;;;;-0.40;99.90;;;;;;5142020;27;19923;-65
2022/01/10 05:36:04;;;;;;;;;;;-0.40;99.90;;;;;;5141999;27;20019;-66
2022/01/10 05:38:29;;;;;;;;;;;-0.40;99.90;;;;;;5150097;27;20325;-59
2022/01/10 05:40:55;;;;;;;;;;;-0.40;99.90;;;;;;5146094;27;19945;-60
2022/01/10 05:43:22;;;;;;;;;;;-0.30;99.90;;;;;;5138414;27;20553;-62
2022/01/10 05:45:48;;;;;;;;;;;-0.30;99.90;;;;;;5143955;27;19924;-59
2022/01/10 05:48:21;;;;;;;;;;;-0.40;99.90;;;;;;5147739;27;19926;-61
2022/01/10 05:50:47;;;;;;;;;;;0.20;99.90;;;;;;5136936;27;19947;-58
2022/01/10 05:53:13;;;;;;;;;;;-0.40;99.90;;;;;;5149491;27;19924;-57
2022/01/10 05:55:39;;;;;;;;;;;-0.40;99.90;;;;;;5142234;27;19937;-57
2022/01/10 05:58:05;;;;;;;;;;;-0.50;99.90;;;;;;5141151;27;20364;-55
2022/01/10 06:00:31;;;;;;;;;;;-0.50;99.90;;;;;;5149469;27;19923;-57
2022/01/10 06:02:57;;;;;;;;;;;-0.60;99.90;;;;;;5135879;27;19967;-56
2022/01/10 06:05:29;;;;;;;;;;;-2.70;99.90;;;;;;5132954;27;19941;-56
2022/01/10 06:07:54;;;;;;;;;;;-0.50;99.90;;;;;;5137131;27;20006;-56
2022/01/10 06:10:20;;;;;;;;;;;-0.50;99.90;;;;;;5148182;27;20498;-56
2022/01/10 06:12:45;;;;;;;;;;;-0.80;99.90;;;;;;5136855;27;19923;-55
2022/01/10 06:15:11;;;;;;;;;;;-0.60;99.90;;;;;;5150163;27;19981;-56
2022/01/10 06:17:37;;;;;;;;;;;-0.60;99.90;;;;;;5145098;27;19968;-56
2022/01/10 06:20:03;;;;;;;;;;;-0.60;99.90;;;;;;5131122;27;19923;-56
2022/01/10 06:22:28;;;;;;;;;;;-0.50;99.90;;;;;;5134497;27;20338;-56
2022/01/10 06:24:54;;;;;;;;;;;0.10;99.90;;;;;;5136809;27;20405;-56
2022/01/10 06:27:20;;;;;;;;;;;-0.60;99.90;;;;;;5132148;27;19924;-58
2022/01/10 06:29:45;;;;;;;;;;;-0.60;99.90;;;;;;5138875;27;20396;-59
2022/01/10 06:32:11;;;;;;;;;;;-0.50;99.90;;;;;;5131863;27;19924;-57
2022/01/10 06:34:36;;;;;;;;;;;-0.50;99.90;;;;;;5130189;27;20377;-59
2022/01/10 06:37:03;;;;;;;;;;;-0.60;99.90;;;;;;5151397;27;19941;-59
2022/01/10 06:39:29;;;;;;;;;;;-0.60;99.90;;;;;;5147893;27;20453;-59
2022/01/10 06:41:54;;;;;;;;;;;-0.60;99.90;;;;;;5140727;27;19972;-58
2022/01/10 06:44:20;;;;;;;;;;;-0.70;99.90;;;;;;5135120;27;20368;-56
2022/01/10 06:46:46;;;;;;;;;;;-0.60;99.90;;;;;;5136090;27;20041;-58
2022/01/10 06:49:11;;;;;;;;;;;-0.60;99.90;;;;;;5144200;27;19963;-57
2022/01/10 06:51:37;;;;;;;;;;;1.40;99.90;;;;;;5148090;27;19927;-58
2022/01/10 06:54:02;;;;;;;;;;;-0.60;99.90;;;;;;5140873;27;19947;-59
2022/01/10 06:56:28;;;;;;;;;;;-0.70;99.90;;;;;;5146624;27;19930;-59
2022/01/10 06:58:53;;;;;;;;;;;-0.70;99.90;;;;;;5132862;27;20030;-56
2022/01/10 07:01:20;;;;;;;;;;;-0.70;99.90;;;;;;5136377;27;20356;-56
2022/01/10 07:03:46;;;;;;;;;;;-0.70;99.90;;;;;;5149734;27;19949;-56
2022/01/10 07:06:11;;;;;;;;;;;0.30;99.90;;;;;;5138767;27;20378;-56
2022/01/10 07:08:37;;;;;;;;;;;-0.70;99.90;;;;;;5135766;27;19933;-58
2022/01/10 07:11:02;;;;;;;;;;;-0.60;99.90;;;;;;5148462;27;20353;-56
2022/01/10 07:13:28;;;;;;;;;;;-0.10;99.90;;;;;;5142981;27;19930;-56
2022/01/10 07:15:54;;;;;;;;;;;0.20;99.90;;;;;;5140894;27;19927;-56
2022/01/10 07:18:19;;;;;;;;;;;0.00;99.90;;;;;;5146673;27;19927;-56
2022/01/10 07:20:45;;;;;;;;;;;0.80;99.90;;;;;;5130616;27;20361;-56
2022/01/10 07:23:10;;;;;;;;;;;-0.70;99.90;;;;;;5133842;27;20472;-56
2022/01/10 07:25:37;;;;;;;;;;;-0.20;99.90;;;;;;5133344;27;19947;-56
2022/01/10 07:28:02;;;;;;;;;;;-0.50;99.90;;;;;;5132824;27;19983;-59
2022/01/10 07:30:28;;;;;;;;;;;-0.90;99.90;;;;;;5138287;27;20377;-59
2022/01/10 07:32:54;;;;;;;;;;;-0.90;99.90;;;;;;5114485;27;19950;-58
2022/01/10 07:35:20;;;;;;;;;;;-0.80;99.90;;;;;;5127467;27;19985;-59
2022/01/10 07:37:45;;;;;;;;;;;-0.90;99.90;;;;;;5128515;27;19935;-59
2022/01/10 07:40:11;;;;;;;;;;;-0.80;99.90;;;;;;5135396;27;19927;-58
2022/01/10 07:42:37;;;;;;;;;;;-0.80;99.90;;;;;;5144486;27;19927;-59
2022/01/10 07:45:03;;;;;;;;;;;-0.70;99.90;;;;;;5130007;27;20194;-58
2022/01/10 07:47:29;;;;;;;;;;;-0.70;99.90;;;;;;5141122;27;20017;-58
2022/01/10 07:49:55;;;;;;;;;;;-0.80;99.90;;;;;;5133825;27;19979;-59
2022/01/10 07:52:22;;;;;;;;;;;-0.80;99.90;;;;;;5133226;27;19931;-58
2022/01/10 07:54:47;;;;;;;;;;;-0.20;99.90;;;;;;5144243;27;20345;-59
2022/01/10 07:57:13;;;;;;;;;;;-0.70;99.90;;;;;;5138871;27;19927;-59
2022/01/10 07:59:40;;;;;;;;;;;-0.70;99.90;;;;;;5132110;27;19927;-58
2022/01/10 08:02:06;;;;;;;;;;;-0.70;99.90;;;;;;5131567;27;19953;-59
2022/01/10 08:04:32;;;;;;;;;;;0.60;99.90;;;;;;5137521;27;19928;-58
2022/01/10 08:06:57;;;;;;;;;;;-0.70;99.90;;;;;;5138433;27;19938;-58
2022/01/10 08:09:23;;;;;;;;;;;0.00;99.90;;;;;;5139526;27;19957;-58
2022/01/10 08:11:48;;;;;;;;;;;-0.50;99.90;;;;;;5132869;27;20009;-60
2022/01/10 08:14:14;;;;;;;;;;;-0.70;99.90;;;;;;5131612;27;20289;-60
2022/01/10 08:16:40;;;;;;;;;;;-0.70;99.90;;;;;;5132659;27;19927;-59
2022/01/10 08:19:06;;;;;;;;;;;-0.70;99.90;;;;;;5143455;27;19927;-59
2022/01/10 08:21:31;;;;;;;;;;;0.30;99.90;;;;;;5143181;27;19930;-58
2022/01/10 08:23:57;;;;;;;;;;;-0.60;99.90;;;;;;5135859;27;19931;-60
2022/01/10 08:26:23;;;;;;;;;;;-0.60;99.90;;;;;;5133601;27;19992;-61
2022/01/10 08:28:48;;;;;;;;;;;-0.60;99.90;;;;;;5132636;27;20376;-59
2022/01/10 08:31:14;;;;;;;;;;;-0.60;99.90;;;;;;5131513;27;20011;-58
2022/01/10 08:33:41;;;;;;;;;;;-0.10;99.90;;;;;;5140197;27;19927;-58
2022/01/10 08:36:07;;;;;;;;;;;-0.50;99.90;;;;;;5134569;27;19928;-58
2022/01/10 08:38:33;;;;;;;;;;;0.00;99.90;;;;;;5134954;27;19934;-66
2022/01/10 08:40:58;;;;;;;;;;;-0.40;99.90;;;;;;5135529;27;19974;-69
2022/01/10 08:43:24;;;;;;;;;;;-0.40;99.90;;;;;;5132309;27;19928;-69
2022/01/10 08:45:50;;;;;;;;;;;-0.40;99.90;;;;;;5130320;27;19931;-66
2022/01/10 08:48:15;;;;;;;;;;;-0.30;99.90;;;;;;5131938;27;20044;-62
2022/01/10 08:50:41;;;;;;;;;;;-0.40;99.90;;;;;;5132507;27;19934;-62
2022/01/10 08:53:08;;;;;;;;;;;-0.40;99.90;;;;;;5134125;27;20301;-70
2022/01/10 08:55:33;;;;;;;;;;;-0.30;99.90;;;;;;5136965;27;19927;-70
2022/01/10 08:58:00;;;;;;;;;;;-0.20;99.90;;;;;;5132706;27;19930;-60
2022/01/10 09:00:26;;;;;;;;;;;-0.10;99.90;;;;;;5129380;27;19965;-61
2022/01/10 09:02:51;;;;;;;;;;;0.00;99.90;;;;;;5133516;27;20019;-66
2022/01/10 09:05:17;;;;;;;;;;;0.00;99.90;;;;;;5143915;27;19927;-60
2022/01/10 09:07:43;;;;;;;;;;;0.00;99.90;;;;;;5130573;27;19935;-58
2022/01/10 09:10:08;;;;;;;;;;;0.10;99.90;;;;;;5142688;27;20095;-58
2022/01/10 09:12:34;;;;;;;;;;;0.20;99.90;;;;;;5131794;27;20014;-58
2022/01/10 09:15:00;;;;;;;;;;;0.40;99.90;;;;;;5147331;27;19985;-58
2022/01/10 09:17:25;;;;;;;;;;;0.20;99.90;;;;;;5136938;27;19954;-58
2022/01/10 09:19:51;;;;;;;;;;;0.40;99.90;;;;;;5139817;27;19927;-58
2022/01/10 09:22:17;;;;;;;;;;;0.40;99.90;;;;;;5143729;27;19927;-58
2022/01/10 09:24:46;;;;;;;;;;;0.50;99.90;;;;;;5132974;27;20005;-58
2022/01/10 09:27:15;;;;;;;;;;;0.70;99.90;;;;;;5140106;27;19927;-58
2022/01/10 09:29:41;;;;;;;;;;;0.60;99.90;;;;;;5144108;27;20050;-59
2022/01/10 09:32:08;;;;;;;;;;;0.70;99.90;;;;;;5132049;27;20376;-60
2022/01/10 09:34:33;;;;;;;;;;;0.80;99.90;;;;;;5131438;27;19950;-59
2022/01/10 09:36:59;;;;;;;;;;;0.90;99.90;;;;;;5129911;27;20281;-59
2022/01/10 09:39:24;;;;;;;;;;;1.00;99.90;;;;;;5130774;27;19927;-59
2022/01/10 09:41:51;;;;;;;;;;;1.00;99.90;;;;;;5135185;27;20309;-60
2022/01/10 09:44:17;;;;;;;;;;;1.10;99.90;;;;;;5132237;27;20040;-59
2022/01/10 09:46:44;;;;;;;;;;;1.20;99.90;;;;;;5131148;27;19927;-58
2022/01/10 09:49:09;;;;;;;;;;;1.30;99.90;;;;;;5138486;27;19927;-59
2022/01/10 09:51:35;;;;;;;;;;;1.40;99.90;;;;;;5132925;27;20426;-62
2022/01/10 09:54:01;;;;;;;;;;;1.60;99.90;;;;;;5136372;27;19927;-61
2022/01/10 09:56:28;;;;;;;;;;;1.70;99.90;;;;;;5132817;27;20026;-61
2022/01/10 09:58:54;;;;;;;;;;;1.70;99.90;;;;;;5137050;27;19927;-61
2022/01/10 10:01:20;;;;;;;;;;;1.80;99.90;;;;;;5137039;27;19933;-61
2022/01/10 10:03:47;;;;;;;;;;;1.90;99.90;;;;;;5133448;27;20549;-61
2022/01/10 10:06:14;;;;;;;;;;;2.00;99.90;;;;;;5142685;27;19927;-62
2022/01/10 10:08:40;;;;;;;;;;;2.10;99.90;;;;;;5135279;27;19934;-58
2022/01/10 10:11:08;;;;;;;;;;;2.10;99.90;;;;;;5145506;27;19927;-58
2022/01/10 10:13:40;;;;;;;;;;;2.20;99.90;;;;;;5142460;27;19927;-58
2022/01/10 10:16:12;;;;;;;;;;;2.30;99.90;;;;;;5130462;27;19973;-58
2022/01/10 10:18:38;;;;;;;;;;;2.50;99.90;;;;;;5132905;27;20377;-59
2022/01/10 10:21:03;;;;;;;;;;;3.00;99.90;;;;;;5135554;27;19980;-58
2022/01/10 10:23:30;;;;;;;;;;;2.70;99.90;;;;;;5140513;27;19927;-59
2022/01/10 10:25:56;;;;;;;;;;;2.80;99.90;;;;;;5130785;27;19927;-57
2022/01/10 10:28:22;;;;;;;;;;;2.90;99.90;;;;;;5140289;27;19929;-58
2022/01/10 10:30:47;;;;;;;;;;;3.00;99.90;;;;;;5134689;27;19927;-59
2022/01/10 10:33:13;;;;;;;;;;;3.20;99.90;;;;;;5130729;27;20273;-59
2022/01/10 10:35:39;;;;;;;;;;;3.40;99.90;;;;;;5127819;27;19935;-58
2022/01/10 10:38:04;;;;;;;;;;;3.50;99.90;;;;;;5128680;27;19977;-59
2022/01/10 10:40:30;;;;;;;;;;;3.80;99.90;;;;;;5131218;27;19931;-59
2022/01/10 10:42:58;;;;;;;;;;;3.70;99.90;;;;;;5128639;27;19927;-60
2022/01/10 10:45:25;;;;;;;;;;;3.90;99.90;;;;;;5128479;27;19996;-60
2022/01/10 10:47:50;;;;;;;;;;;4.00;99.90;;;;;;5129420;27;19931;-59
2022/01/10 10:50:16;;;;;;;;;;;4.10;99.90;;;;;;5132577;27;19927;-58
2022/01/10 10:52:42;;;;;;;;;;;4.30;99.90;;;;;;5135834;27;19927;-59
2022/01/10 10:55:09;;;;;;;;;;;4.30;99.90;;;;;;5133360;27;20387;-58
2022/01/10 10:57:35;;;;;;;;;;;4.40;99.90;;;;;;5139134;27;19927;-58
2022/01/10 11:00:02;;;;;;;;;;;4.50;99.90;;;;;;5128557;27;19934;-58
2022/01/10 11:02:28;;;;;;;;;;;4.70;99.90;;;;;;5134403;27;20361;-58
2022/01/10 11:04:53;;;;;;;;;;;4.80;99.90;;;;;;5126906;27;19937;-58
2022/01/10 11:07:23;;;;;;;;;;;4.90;99.90;;;;;;5127357;27;19971;-59
2022/01/10 11:09:49;;;;;;;;;;;5.00;99.90;;;;;;5128990;27;19927;-58
2022/01/10 11:12:17;;;;;;;;;;;5.60;99.90;;;;;;5125339;27;19999;-58
2022/01/10 11:14:43;;;;;;;;;;;5.00;99.90;;;;;;5125840;27;19927;-58
2022/01/10 11:17:15;;;;;;;;;;;5.20;99.90;;;;;;5124562;27;19958;-58
2022/01/10 11:19:41;;;;;;;;;;;5.20;99.90;;;;;;5123501;27;20381;-58
2022/01/10 11:22:07;;;;;;;;;;;5.30;99.90;;;;;;5126455;27;19965;-58
2022/01/10 11:24:43;;;;;;;;;;;5.20;99.90;;;;;;5123043;27;19979;-59
2022/01/10 11:27:28;;;;;;;;;;;5.20;99.90;;;;;;5123916;27;19939;-58
2022/01/10 11:29:56;;;;;;;;;;;5.20;99.90;;;;;;5124824;27;19927;-59
2022/01/10 11:32:41;;;;;;;;;;;5.30;99.90;;;;;;5124617;27;20486;-58
2022/01/10 11:35:07;;;;;;;;;;;5.20;99.90;;;;;;5123216;27;19927;-60
2022/01/10 11:37:33;;;;;;;;;;;5.30;99.90;;;;;;5124102;27;19935;-59
2022/01/10 11:39:58;;;;;;;;;;;5.30;99.90;;;;;;5116868;27;19931;-59
2022/01/10 11:42:24;;;;;;;;;;;5.30;99.90;;;;;;5133467;27;19930;-59
2022/01/10 11:45:09;;;;;;;;;;;5.30;99.90;;;;;;5140978;27;19926;-58
2022/01/10 11:47:53;;;;;;;;;;;5.30;99.90;;;;;;5131357;27;20257;-58
2022/01/10 11:50:28;;;;;;;;;;;5.40;99.90;;;;;;5132694;27;19934;-59
2022/01/10 11:52:54;;;;;;;;;;;5.40;99.90;;;;;;5131496;27;19934;-58
2022/01/10 11:55:29;;;;;;;;;;;5.40;99.90;;;;;;5133525;27;19927;-59
2022/01/10 11:58:01;;;;;;;;;;;5.30;99.90;;;;;;5125508;27;19927;-61
2022/01/10 12:00:34;;;;;;;;;;;5.40;99.90;;;;;;5126691;27;19931;-58
2022/01/10 12:02:59;;;;;;;;;;;5.40;99.90;;;;;;5125657;27;19980;-67
2022/01/10 12:05:25;;;;;;;;;;;5.30;99.90;;;;;;5130473;27;19926;-67
2022/01/10 12:07:51;;;;;;;;;;;5.40;99.90;;;;;;5134364;27;19924;-63
2022/01/10 12:10:17;;;;;;;;;;;5.30;99.90;;;;;;5132144;27;20045;-70
2022/01/10 12:12:43;;;;;;;;;;;5.30;99.90;;;;;;5141830;27;20324;-60
2022/01/10 12:15:08;;;;;;;;;;;5.30;99.90;;;;;;5127170;27;20369;-59
2022/01/10 12:17:36;;;;;;;;;;;5.40;99.90;;;;;;5132814;27;20284;-62
2022/01/10 12:20:02;;;;;;;;;;;5.40;99.90;;;;;;5126685;27;20082;-60
2022/01/10 12:22:28;;;;;;;;;;;5.40;99.90;;;;;;5130022;27;20381;-59
2022/01/10 12:24:55;;;;;;;;;;;5.60;99.90;;;;;;5134389;27;19972;-63
2022/01/10 12:27:21;;;;;;;;;;;5.60;99.90;;;;;;5126251;27;19927;-58
2022/01/10 12:29:46;;;;;;;;;;;5.60;99.90;;;;;;5129536;27;19935;-65
2022/01/10 12:32:12;;;;;;;;;;;5.70;99.90;;;;;;5131336;27;19927;-59
2022/01/10 12:34:42;;;;;;;;;;;5.80;99.90;;;;;;5130420;27;19931;-59
2022/01/10 12:37:08;;;;;;;;;;;5.80;99.90;;;;;;5115294;28;19944;-56
2022/01/10 12:39:35;;;;;;;;;;;6.00;99.90;;;;;;5141505;27;19960;-60
2022/01/10 12:42:01;;;;;;;;;;;5.80;99.90;;;;;;5129225;27;19982;-58
2022/01/10 12:44:27;;;;;;;;;;;5.90;99.90;;;;;;5133494;27;20394;-59
2022/01/10 12:46:53;;;;;;;;;;;5.90;99.90;;;;;;5130743;27;19927;-58
2022/01/10 12:49:19;;;;;;;;;;;5.90;99.90;;;;;;5137314;27;20399;-58
2022/01/10 12:51:45;;;;;;;;;;;6.00;99.90;;;;;;5133788;27;20092;-56
2022/01/10 12:54:15;;;;;;;;;;;6.10;99.90;;;;;;5136271;27;19989;-56
2022/01/10 12:56:41;;;;;;;;;;;6.00;99.90;;;;;;5127579;27;20042;-59
2022/01/10 12:59:07;;;;;;;;;;;6.10;99.90;;;;;;5123791;27;20677;-63
2022/01/10 13:01:32;;;;;;;;;;;6.10;99.90;;;;;;5140423;27;20360;-56
2022/01/10 13:03:59;;;;;;;;;;;6.20;99.90;;;;;;5132587;27;20338;-55
2022/01/10 13:06:26;;;;;;;;;;;6.20;99.90;;;;;;5135788;27;20368;-56
2022/01/10 13:08:52;;;;;;;;;;;6.20;99.90;;;;;;5144291;27;19952;-56
2022/01/10 13:11:19;;;;;;;;;;;6.30;99.90;;;;;;5132456;27;19931;-56
2022/01/10 13:13:45;;;;;;;;;;;6.40;99.90;;;;;;5136416;27;19927;-56
2022/01/10 13:16:25;;;;;;;;;;;6.50;99.90;;;;;;5126306;27;20018;-57
2022/01/10 13:18:59;;;;;;;;;;;6.50;99.90;;;;;;5127482;27;19942;-59
2022/01/10 13:21:32;;;;;;;;;;;6.50;99.90;;;;;;5144350;27;20460;-57
2022/01/10 13:24:09;;;;;;;;;;;6.50;99.90;;;;;;5130180;27;20070;-57
2022/01/10 13:26:35;;;;;;;;;;;6.60;99.90;;;;;;5122890;27;19976;-55
2022/01/10 13:29:04;;;;;;;;;;;6.70;99.90;;;;;;5128950;27;19989;-57
2022/01/10 13:31:36;;;;;;;;;;;6.70;99.90;;;;;;5125903;27;19982;-56
2022/01/10 13:34:03;;;;;;;;;;;6.70;99.90;;;;;;5126126;27;19928;-56
2022/01/10 13:36:41;;;;;;;;;;;6.80;99.90;;;;;;5128032;27;19938;-58
2022/01/10 13:39:16;;;;;;;;;;;6.90;99.90;;;;;;5132522;27;19932;-58
2022/01/10 13:41:55;;;;;;;;;;;6.80;99.90;;;;;;5132443;27;19927;-57
2022/01/10 13:44:21;;;;;;;;;;;6.90;99.90;;;;;;5132272;27;20467;-57
2022/01/10 13:46:46;;;;;;;;;;;6.80;99.90;;;;;;5142564;27;19931;-56
2022/01/10 13:49:25;;;;;;;;;;;6.80;99.90;;;;;;5126927;27;19976;-56
2022/01/10 13:52:06;;;;;;;;;;;6.90;99.90;;;;;;5137603;27;19927;-56
2022/01/10 13:54:31;;;;;;;;;;;6.80;99.90;;;;;;5133852;27;20468;-57
2022/01/10 13:56:57;;;;;;;;;;;6.90;99.90;;;;;;5134017;27;19934;-57
2022/01/10 13:59:22;;;;;;;;;;;7.10;99.90;;;;;;5130939;27;20460;-57
2022/01/10 14:01:54;;;;;;;;;;;6.80;99.90;;;;;;5128744;27;19938;-57
2022/01/10 14:04:24;;;;;;;;;;;6.80;99.90;;;;;;5129728;27;19934;-56
2022/01/10 14:06:49;;;;;;;;;;;6.70;99.90;;;;;;5137882;27;19928;-56
2022/01/10 14:09:15;;;;;;;;;;;6.70;99.90;;;;;;5140734;27;19927;-56
2022/01/10 14:11:41;;;;;;;;;;;6.60;99.90;;;;;;5135476;27;20026;-57
2022/01/10 14:14:09;;;;;;;;;;;8.00;99.90;;;;;;5133622;27;20352;-56
2022/01/10 14:16:37;;;;;;;;;;;6.50;99.90;;;;;;5142384;27;20304;-59
2022/01/10 14:19:04;;;;;;;;;;;6.50;99.90;;;;;;5128060;27;20022;-58
2022/01/10 14:21:30;;;;;;;;;;;6.50;99.90;;;;;;5136655;27;19934;-59
2022/01/10 14:23:56;;;;;;;;;;;6.30;99.90;;;;;;5138632;27;20284;-58
2022/01/10 14:26:22;;;;;;;;;;;6.30;99.90;;;;;;5131876;27;19931;-59
2022/01/10 14:28:48;;;;;;;;;;;6.30;99.90;;;;;;5137649;27;19954;-57
2022/01/10 14:31:14;;;;;;;;;;;6.20;99.90;;;;;;5128033;27;19928;-58